Lathrop Wells, Nevada
Current Conditions -  °F | °C
As of 2:52 PM on Monday 20 Oct 2014 (Local Time) from KDRA Reporting Station
Clear Clear  
Wind Chill: 84°   Ceiling: Unl
Heat Index: 84°   Visibility: 10mi
Dew Point: 36°   Wind: 16mph
Humidity: 18%   Direction: 200°SSW
Pressure: 29.89"   Gusts: 24mph
Location:  37.1785°N, 116.488°W
Report Text: KDRA 202152Z AUTO 20014G21KT 10SM CLR 29/02 A2989 RMK AO2 SLP079 T02890022
Loading
Personal Weather Stations






























Interactive Weather Map
Tropical Storm Tracking
New forecast layout! Learn more

10-Day Weather Forecast

Advertisements
Track Severe Weather on mobile